Portada
METAR-TAF:

METAR-TAF

Aeroports :

Zahedan, Iran

latitud: 29-28N, longitud: 060-53E, altitud: 1370 m

Observació

L'informe es va fer fa 1 hora i 5 minuts, a les 02:00 UTC
Vent 4 kt del Sud/Sud-Oest
Temperatura 13°C
Humitat 18%
Pressió 1017 hPa
Visibilitat 10 km o més
sense núvols per sota de 1500 mi sense presència de cumulonimbus.

METAR: OIZH 250200Z 20004KT CAVOK 13/M11 Q1017 A3004

Hora: 06:35 (03:05 UTC)

Pronòstic

L'informe es va fer fa 4 hores i 5 minuts, a les 23:00 UTC
Pronòstic vàlid del 25 a les 00 UTC al 26 a les 06 UTC
Vent 6 kt del Nord/Nord-Est
Visibilitat: 8000 m
Temporalment
l' 25 a les 10 UTC al 25 a les 15 UTC
Vent 16 kt del Nord/Nord-Est

TAF: OIZH 242300Z 2500/2606 02006KT 8000 NSC TEMPO 2510/2515 02016KT

Observacions i pronòstics meteorològics de més de 4000 aeroports (METAR i TAF).

Les estacions disponibles són els punts grocs i vermells al mapa.

Posi el ratolí al punt desitjat per veure el nom de l'estació.

Feu clic per veure les observacions i els pronòstics meteorològics.

Per canviar el mapa: feu clic els botons verds amb una creu de color negre per apropar; al botó verd amb un guió per allunyar la imatge; o en les fletxes verdes per a mapes adjacents.


METAR-TAF: